This is the latest recevied weather packets stored in our database for station/object WB6ANP. If no packets are shown the sender has not sent any weather packets the latest 1 day(s).
| Time | Temp. | Humidity | Pressure | Rain* | Wind** | Luminosity | Snow |
|---|---|---|---|---|---|---|---|
| 1778005720 | 28.89° C | 57% | 1005.3 hPa | 0 mm | 1.79 m/s, 226° | 799 W/m² | - |
| 1778005417 | 28.89° C | 56% | 1005.3 hPa | 0 mm | 3.58 m/s, 239° | 726 W/m² | - |
| 1778005113 | 28.89° C | 59% | 1005.1 hPa | 0 mm | 4.02 m/s, 227° | 746 W/m² | - |
| 1778004811 | 28.89° C | 59% | 1005.4 hPa | 0 mm | 2.24 m/s, 237° | 591 W/m² | - |
| 1778004507 | 28.33° C | 59% | 1005.4 hPa | 0 mm | 3.58 m/s, 230° | 764 W/m² | - |
| 1778004204 | 28.33° C | 60% | 1005.4 hPa | 0 mm | 2.68 m/s, 229° | 630 W/m² | - |
| 1778003900 | 27.78° C | 59% | 1005.4 hPa | 0 mm | 3.58 m/s, 231° | 577 W/m² | - |
| 1778003597 | 28.33° C | 59% | 1005.4 hPa | 0 mm | 4.47 m/s, 231° | 533 W/m² | - |
| 1778003293 | 28.33° C | 61% | 1005.5 hPa | 0 mm | 3.13 m/s, 233° | 573 W/m² | - |
| 1778002991 | 28.33° C | 60% | 1005.7 hPa | 0 mm | 2.24 m/s, 223° | 557 W/m² | - |
| 1778002686 | 28.33° C | 61% | 1005.7 hPa | 0 mm | 4.92 m/s, 219° | 632 W/m² | - |
| 1778002383 | 27.78° C | 63% | 1005.3 hPa | 0 mm | 4.47 m/s, 228° | 680 W/m² | - |
| 1778002091 | 27.78° C | 61% | 1005.3 hPa | 0 mm | 6.26 m/s, 226° | 611 W/m² | - |
| 1778001777 | 27.78° C | 62% | 1005.3 hPa | 0 mm | 6.26 m/s, 215° | 768 W/m² | - |
| 1778001472 | 27.78° C | 63% | 1005.3 hPa | 0 mm | 2.68 m/s, 197° | 735 W/m² | - |
| 1778001169 | 27.78° C | 62% | 1005.4 hPa | 0 mm | 6.71 m/s, 236° | 511 W/m² | - |
| 1778000866 | 27.78° C | 62% | 1005.6 hPa | 0 mm | 5.36 m/s, 235° | 495 W/m² | - |
| 1778000563 | 27.78° C | 63% | 1005.5 hPa | 0 mm | 4.92 m/s, 227° | 503 W/m² | - |
| 1778000258 | 27.78° C | 61% | 1005.3 hPa | 0 mm | 4.47 m/s, 228° | 623 W/m² | - |
| 1777999954 | 27.78° C | 63% | 1005.3 hPa | 0 mm | 4.92 m/s, 238° | 748 W/m² | - |
| 1777999650 | 27.22° C | 65% | 1005.4 hPa | 0 mm | 3.13 m/s, 207° | 539 W/m² | - |
| 1777999347 | 27.22° C | 63% | 1005.5 hPa | 0 mm | 5.36 m/s, 222° | 610 W/m² | - |
| 1777999045 | 27.22° C | 62% | 1005.4 hPa | 0 mm | 6.71 m/s, 232° | 608 W/m² | - |
| 1777998744 | 27.22° C | 63% | 1005.5 hPa | 0 mm | 3.58 m/s, 227° | 489 W/m² | - |
| 1777998441 | 27.22° C | 61% | 1005 hPa | 0 mm | 2.24 m/s, 229° | 646 W/m² | - |
* Rain latest hour (hover to see other rain measurements)
** Current wind speed in m/s (hover to see current wind gust speed)